createdAt,value
2018-06-15T00:00:53.340Z,88.80
2018-06-15T00:03:21.545Z,89.40
2018-06-15T00:05:49.691Z,86.90
2018-06-15T00:08:17.866Z,81.50
2018-06-15T00:10:46.157Z,75.70
2018-06-15T00:13:14.325Z,73.60
2018-06-15T00:15:42.541Z,76.20
2018-06-15T00:18:11.092Z,77.30
2018-06-15T00:20:39.269Z,78.80
2018-06-15T00:23:07.559Z,79.60
2018-06-15T00:25:35.715Z,79.80
2018-06-15T00:28:03.940Z,83.00
2018-06-15T00:30:32.093Z,91.70
2018-06-15T00:33:00.239Z,91.80
2018-06-15T00:35:28.437Z,92.10
2018-06-15T00:37:56.640Z,93.20
2018-06-15T00:40:24.820Z,94.50
2018-06-15T00:42:52.979Z,94.60
2018-06-15T00:45:21.156Z,95.00
2018-06-15T00:47:49.373Z,94.70
2018-06-15T00:50:17.623Z,93.60
2018-06-15T00:52:45.783Z,92.30
2018-06-15T00:55:14.000Z,92.60
2018-06-15T00:57:48.094Z,93.90
2018-06-15T01:00:16.659Z,93.80
2018-06-15T01:02:44.861Z,95.00
2018-06-15T01:05:13.030Z,95.20
2018-06-15T01:07:41.283Z,94.90
2018-06-15T01:10:09.447Z,95.10
2018-06-15T01:12:37.614Z,94.90
2018-06-15T01:15:06.109Z,95.50
2018-06-15T01:17:34.242Z,97.40
2018-06-15T01:20:02.378Z,98.10
2018-06-15T01:22:30.579Z,99.40
2018-06-15T01:24:58.725Z,99.10
2018-06-15T01:27:26.928Z,97.40
2018-06-15T01:29:55.120Z,97.40
2018-06-15T01:32:23.321Z,97.40
2018-06-15T01:34:51.467Z,95.60
2018-06-15T01:37:19.620Z,96.10
2018-06-15T01:39:47.760Z,96.80
2018-06-15T01:42:15.976Z,97.40
2018-06-15T01:44:44.110Z,98.40
2018-06-15T01:47:12.269Z,98.30
2018-06-15T01:49:40.433Z,97.40
2018-06-15T01:52:08.595Z,99.20
2018-06-15T01:54:36.809Z,99.90
2018-06-15T01:57:04.977Z,99.10
2018-06-15T01:59:33.147Z,99.60
2018-06-15T02:02:01.364Z,99.90
2018-06-15T02:04:29.517Z,99.90
2018-06-15T02:06:57.666Z,99.90
2018-06-15T02:09:25.889Z,99.60
2018-06-15T02:11:54.089Z,99.70
2018-06-15T02:14:22.297Z,99.80
2018-06-15T02:16:50.476Z,99.50
2018-06-15T02:19:18.686Z,99.90
2018-06-15T02:24:14.901Z,99.90
2018-06-15T02:26:43.064Z,99.90
2018-06-15T02:29:11.346Z,99.90
2018-06-15T02:34:07.537Z,99.90
2018-06-15T02:36:35.725Z,99.90
2018-06-15T02:39:05.830Z,99.90
2018-06-15T02:41:34.013Z,99.90
2018-06-15T02:44:02.219Z,99.90
2018-06-15T02:46:30.407Z,99.90
2018-06-15T02:48:58.625Z,99.90
2018-06-15T02:51:26.850Z,99.90
2018-06-15T02:53:55.077Z,99.90
2018-06-15T02:56:23.302Z,99.20
2018-06-15T02:58:51.601Z,99.80
2018-06-15T03:01:19.757Z,99.10
2018-06-15T03:03:47.931Z,99.90
2018-06-15T03:06:16.105Z,97.40
2018-06-15T03:08:44.472Z,94.80
2018-06-15T03:11:12.629Z,92.70
2018-06-15T03:13:43.920Z,92.50
2018-06-15T03:16:12.153Z,91.40
2018-06-15T03:18:40.487Z,90.70
2018-06-15T03:21:08.624Z,90.00
2018-06-15T03:23:36.938Z,88.80
2018-06-15T03:26:05.182Z,90.10
2018-06-15T03:28:33.406Z,87.50
2018-06-15T03:31:01.682Z,90.40
2018-06-15T03:33:30.287Z,90.70
2018-06-15T03:35:58.572Z,90.50
2018-06-15T03:38:26.761Z,88.40
2018-06-15T03:40:55.001Z,87.90
2018-06-15T03:43:23.196Z,89.20
2018-06-15T03:45:51.382Z,86.70
2018-06-15T03:48:19.591Z,86.10
2018-06-15T03:50:47.736Z,86.30
2018-06-15T03:53:15.924Z,86.30
2018-06-15T03:55:44.324Z,87.10
2018-06-15T03:58:13.020Z,87.50
2018-06-15T04:00:41.222Z,83.70
2018-06-15T04:03:09.388Z,85.20
2018-06-15T04:05:37.657Z,82.50
2018-06-15T04:08:05.945Z,82.80
2018-06-15T04:10:34.188Z,81.20
2018-06-15T04:13:02.450Z,78.70
2018-06-15T04:15:30.588Z,74.60
2018-06-15T04:18:03.338Z,74.30
2018-06-15T04:20:31.521Z,74.00
2018-06-15T04:23:00.034Z,72.00
2018-06-15T04:25:28.883Z,72.80
2018-06-15T04:27:57.117Z,71.00
2018-06-15T04:30:37.248Z,71.60
2018-06-15T04:33:05.627Z,72.30
2018-06-15T04:35:33.808Z,74.70
2018-06-15T04:38:02.080Z,77.80
2018-06-15T04:40:30.310Z,72.40
2018-06-15T04:42:58.579Z,69.80
2018-06-15T04:45:26.729Z,70.80
2018-06-15T04:47:54.897Z,66.00
2018-06-15T04:50:24.597Z,62.20
2018-06-15T04:52:52.792Z,58.40
2018-06-15T04:55:21.261Z,54.30
2018-06-15T04:57:49.621Z,53.90
2018-06-15T05:00:17.821Z,56.60
2018-06-15T05:02:46.123Z,56.90
2018-06-15T05:05:14.352Z,57.40
2018-06-15T05:07:42.551Z,55.10
2018-06-15T05:10:10.807Z,55.40
2018-06-15T05:12:39.369Z,55.20
2018-06-15T05:15:07.589Z,54.30
2018-06-15T05:17:35.789Z,53.40
2018-06-15T05:20:04.394Z,54.80
2018-06-15T05:22:33.487Z,55.10
2018-06-15T05:25:03.357Z,57.50
2018-06-15T05:27:31.698Z,61.10
2018-06-15T05:30:01.169Z,61.70
2018-06-15T05:32:30.035Z,62.50
2018-06-15T05:34:58.880Z,60.90
2018-06-15T05:37:27.713Z,61.10
2018-06-15T05:42:24.573Z,56.40
2018-06-15T05:44:53.291Z,58.70
2018-06-15T05:47:22.330Z,60.00
2018-06-15T05:49:51.273Z,58.20
2018-06-15T05:52:19.801Z,57.90
2018-06-15T05:54:48.382Z,55.70
2018-06-15T05:57:16.837Z,54.10
2018-06-15T05:59:45.393Z,41.90
2018-06-15T06:02:13.839Z,39.90
2018-06-15T06:07:11.853Z,36.80
2018-06-15T06:09:40.485Z,30.80
2018-06-15T06:12:09.531Z,32.20
2018-06-15T06:14:38.115Z,33.20
2018-06-15T06:17:06.718Z,36.70
2018-06-15T06:19:35.266Z,35.40
2018-06-15T06:22:03.833Z,36.20
2018-06-15T06:24:32.836Z,34.20
2018-06-15T06:27:01.464Z,34.20
2018-06-15T06:29:30.202Z,34.60
2018-06-15T06:31:59.039Z,35.90
2018-06-15T06:34:27.993Z,36.40
2018-06-15T06:36:56.482Z,33.00
2018-06-15T06:39:24.958Z,34.00
2018-06-15T06:41:53.675Z,33.60
2018-06-15T06:44:22.532Z,34.00
2018-06-15T06:46:51.336Z,36.40
2018-06-15T06:49:20.105Z,27.90
2018-06-15T06:51:48.850Z,26.60
2018-06-15T06:54:17.668Z,26.90
2018-06-15T06:56:46.385Z,29.30
2018-06-15T06:59:14.788Z,29.70
2018-06-15T07:01:44.027Z,28.30
2018-06-15T07:04:14.213Z,28.30
2018-06-15T07:06:43.015Z,29.60
2018-06-15T07:09:11.829Z,28.10
2018-06-15T07:11:40.285Z,28.00
2018-06-15T07:14:08.901Z,26.90
2018-06-15T07:16:37.751Z,27.50
2018-06-15T07:19:06.415Z,28.00
2018-06-15T07:21:35.144Z,27.50
2018-06-15T07:24:10.430Z,27.90
2018-06-15T07:26:39.138Z,26.50
2018-06-15T07:29:07.991Z,24.40
2018-06-15T07:31:36.725Z,23.20
2018-06-15T07:34:05.806Z,23.00
2018-06-15T07:36:38.004Z,24.80
2018-06-15T07:39:08.294Z,26.40
2018-06-15T07:41:36.880Z,25.90
2018-06-15T07:44:05.470Z,26.90
2018-06-15T07:46:34.244Z,27.30
2018-06-15T07:49:04.326Z,28.70
2018-06-15T07:51:32.858Z,24.20
2018-06-15T07:54:01.263Z,26.60
2018-06-15T07:56:29.653Z,24.00
2018-06-15T07:58:58.296Z,27.80
2018-06-15T08:01:26.683Z,29.00
2018-06-15T08:04:02.747Z,26.30
2018-06-15T08:06:31.573Z,23.50
2018-06-15T08:09:01.046Z,27.60
2018-06-15T08:11:30.127Z,27.50
2018-06-15T08:13:58.594Z,23.70
2018-06-15T08:18:55.421Z,21.80
2018-06-15T08:21:24.320Z,16.00
2018-06-15T08:23:52.967Z,18.80
2018-06-15T08:26:21.424Z,19.00
2018-06-15T08:28:50.500Z,15.80
2018-06-15T08:31:19.231Z,16.70
2018-06-15T08:33:47.988Z,12.60
2018-06-15T08:36:16.615Z,5.60
2018-06-15T08:38:45.217Z,6.20
2018-06-15T08:41:13.949Z,6.00
2018-06-15T08:43:42.707Z,3.10
2018-06-15T08:46:11.734Z,3.30
2018-06-15T08:48:40.272Z,1.00
2018-06-15T08:51:09.216Z,1.00
2018-06-15T08:56:05.822Z,1.00
2018-06-15T08:58:34.421Z,1.00
2018-06-15T09:01:03.022Z,1.00
2018-06-15T09:03:31.526Z,1.00
2018-06-15T09:05:59.848Z,1.00
2018-06-15T09:08:28.488Z,1.00
2018-06-15T09:10:57.776Z,1.00
2018-06-15T09:13:26.155Z,1.00
2018-06-15T09:15:54.804Z,1.00
2018-06-15T09:18:23.208Z,1.00
2018-06-15T09:20:52.074Z,1.00
2018-06-15T09:23:20.538Z,1.00
2018-06-15T09:25:50.000Z,1.00
2018-06-15T09:28:18.459Z,1.00
2018-06-15T09:30:46.951Z,1.00
2018-06-15T09:33:15.559Z,1.00
2018-06-15T09:38:12.170Z,1.00
2018-06-15T09:40:40.520Z,1.00
2018-06-15T09:43:09.006Z,1.00
2018-06-15T09:45:37.943Z,1.00
2018-06-15T09:48:07.212Z,1.00
2018-06-15T09:50:35.777Z,1.00
2018-06-15T09:53:04.419Z,1.00
2018-06-15T09:55:32.900Z,1.00
2018-06-15T09:58:04.282Z,1.00
2018-06-15T10:00:37.965Z,1.00
2018-06-15T10:03:06.489Z,1.00
2018-06-15T10:05:35.264Z,1.00
2018-06-15T10:08:03.693Z,1.00
2018-06-15T10:10:32.231Z,1.00
2018-06-15T10:13:01.017Z,1.00
2018-06-15T10:15:29.454Z,1.00
2018-06-15T10:17:57.952Z,1.00
2018-06-15T10:20:26.631Z,1.00
2018-06-15T10:22:55.213Z,1.00
2018-06-15T10:25:23.552Z,1.00
2018-06-15T10:27:52.027Z,1.00
2018-06-15T10:30:20.542Z,1.00
2018-06-15T10:32:49.111Z,1.00
2018-06-15T10:35:17.803Z,1.00
2018-06-15T10:37:46.242Z,1.00
2018-06-15T10:40:15.352Z,1.00
2018-06-15T10:42:43.665Z,1.00
2018-06-15T10:45:12.182Z,1.00
2018-06-15T10:47:40.560Z,1.00
2018-06-15T10:50:09.190Z,1.00
2018-06-15T10:52:37.782Z,1.00
2018-06-15T10:55:06.574Z,1.00
2018-06-15T11:00:04.325Z,1.00
2018-06-15T11:02:32.957Z,1.00
2018-06-15T11:05:01.707Z,1.00
2018-06-15T11:07:30.219Z,1.00
2018-06-15T11:09:59.282Z,1.00
2018-06-15T11:12:27.779Z,1.00
2018-06-15T11:14:56.310Z,1.00
2018-06-15T11:17:24.709Z,1.00
2018-06-15T11:19:53.063Z,1.00
2018-06-15T11:22:21.422Z,1.00
2018-06-15T11:24:49.954Z,1.00
2018-06-15T11:29:46.655Z,1.00
2018-06-15T11:32:15.493Z,1.00
2018-06-15T11:34:44.090Z,1.00
2018-06-15T11:37:12.622Z,1.00
2018-06-15T11:39:41.087Z,1.00
2018-06-15T11:42:09.751Z,1.00
2018-06-15T11:44:38.259Z,1.00
2018-06-15T11:47:07.159Z,1.00
2018-06-15T11:49:37.942Z,1.00
2018-06-15T11:52:06.439Z,1.00
2018-06-15T11:54:34.858Z,1.00
2018-06-15T11:57:03.153Z,1.00
2018-06-15T11:59:31.717Z,1.00
2018-06-15T12:02:00.692Z,1.00
2018-06-15T12:04:29.277Z,1.00
2018-06-15T12:06:58.226Z,1.00
2018-06-15T12:09:26.700Z,1.00
2018-06-15T12:11:55.028Z,1.00
2018-06-15T12:14:23.474Z,1.00
2018-06-15T12:16:52.055Z,1.00
2018-06-15T12:19:20.425Z,1.00
2018-06-15T12:21:48.858Z,1.00
2018-06-15T12:24:17.737Z,1.00
2018-06-15T12:26:46.253Z,1.00
2018-06-15T12:29:14.512Z,1.00
2018-06-15T12:31:45.272Z,1.00
2018-06-15T12:34:13.769Z,1.00
2018-06-15T12:36:42.141Z,1.00
2018-06-15T12:39:10.989Z,1.00
2018-06-15T12:41:39.643Z,1.00
2018-06-15T12:44:08.308Z,1.00
2018-06-15T12:46:36.910Z,1.00
2018-06-15T12:49:05.732Z,1.00
2018-06-15T12:51:34.234Z,1.00
2018-06-15T12:54:02.997Z,1.00
2018-06-15T12:56:31.324Z,1.00
2018-06-15T12:59:00.091Z,1.00
2018-06-15T13:01:28.395Z,1.00
2018-06-15T13:03:56.945Z,1.00
2018-06-15T13:06:25.275Z,1.00
2018-06-15T13:08:53.687Z,1.00
2018-06-15T13:11:22.181Z,1.00
2018-06-15T13:13:50.546Z,1.00
2018-06-15T13:16:19.105Z,1.00
2018-06-15T13:18:47.995Z,1.00
2018-06-15T13:21:16.796Z,1.00
2018-06-15T13:23:45.203Z,1.00
2018-06-15T13:26:13.525Z,1.00
2018-06-15T13:28:41.767Z,1.00
2018-06-15T13:31:10.155Z,1.00
2018-06-15T13:33:38.538Z,1.00
2018-06-15T13:36:06.815Z,1.00
2018-06-15T13:38:35.124Z,1.00
2018-06-15T13:41:03.575Z,1.00
2018-06-15T13:43:32.048Z,1.00
2018-06-15T13:46:01.493Z,1.00
2018-06-15T13:48:30.883Z,1.00
2018-06-15T13:50:59.149Z,1.00
2018-06-15T13:53:27.558Z,1.00
2018-06-15T13:55:57.921Z,1.00
2018-06-15T13:58:26.160Z,1.00
2018-06-15T14:00:54.592Z,1.00
2018-06-15T14:03:22.925Z,1.00
2018-06-15T14:05:51.180Z,1.00
2018-06-15T14:08:19.510Z,1.00
2018-06-15T14:10:47.815Z,1.00
2018-06-15T14:13:16.286Z,1.00
2018-06-15T14:15:45.835Z,1.00
2018-06-15T14:18:14.283Z,1.00
2018-06-15T14:20:42.661Z,1.00
2018-06-15T14:23:11.027Z,1.00
2018-06-15T14:25:40.052Z,1.00
2018-06-15T14:28:08.399Z,1.00
2018-06-15T14:30:36.713Z,1.00
2018-06-15T14:33:05.055Z,1.00
2018-06-15T14:35:33.414Z,1.00
2018-06-15T14:38:01.670Z,1.00
2018-06-15T14:40:29.992Z,1.00
2018-06-15T14:42:58.369Z,1.00
2018-06-15T14:45:26.820Z,1.00
2018-06-15T14:47:55.051Z,1.00
2018-06-15T14:50:23.385Z,1.00
2018-06-15T14:52:51.671Z,1.00
2018-06-15T14:55:20.254Z,1.00
2018-06-15T14:57:48.677Z,1.00
2018-06-15T15:00:17.209Z,1.00
2018-06-15T15:02:45.859Z,1.00
2018-06-15T15:05:14.760Z,1.00
2018-06-15T15:07:43.205Z,1.00
2018-06-15T15:10:11.490Z,1.00
2018-06-15T15:12:40.998Z,1.00
2018-06-15T15:17:38.087Z,1.00
2018-06-15T15:20:06.465Z,1.00
2018-06-15T15:22:34.858Z,1.00
2018-06-15T15:25:03.348Z,1.00
2018-06-15T15:27:31.671Z,1.00
2018-06-15T15:29:59.984Z,1.00
2018-06-15T15:32:28.387Z,1.00
2018-06-15T15:34:56.683Z,1.00
2018-06-15T15:37:25.090Z,1.00
2018-06-15T15:42:21.569Z,1.00
2018-06-15T15:44:49.919Z,1.00
2018-06-15T15:47:18.217Z,1.00
2018-06-15T15:49:46.595Z,1.00
2018-06-15T15:52:14.857Z,1.00
2018-06-15T15:54:43.301Z,1.00
2018-06-15T15:57:11.627Z,1.00
2018-06-15T15:59:40.030Z,1.00
2018-06-15T16:02:08.299Z,1.00
2018-06-15T16:04:36.808Z,1.00
2018-06-15T16:07:05.161Z,1.00
2018-06-15T16:09:33.420Z,1.00
2018-06-15T16:12:01.800Z,1.00
2018-06-15T16:14:30.107Z,1.00
2018-06-15T16:16:58.370Z,1.00
2018-06-15T16:19:26.731Z,1.00
2018-06-15T16:21:54.983Z,1.00
2018-06-15T16:24:23.301Z,1.00
2018-06-15T16:26:51.544Z,1.00
2018-06-15T16:29:19.850Z,1.00
2018-06-15T16:31:48.284Z,1.00
2018-06-15T16:34:16.607Z,1.00
2018-06-15T16:36:44.993Z,1.00
2018-06-15T16:39:13.357Z,1.00
2018-06-15T16:41:41.787Z,1.00
2018-06-15T16:44:10.395Z,1.00
2018-06-15T16:46:44.671Z,1.00
2018-06-15T16:49:13.033Z,1.00
2018-06-15T16:51:41.466Z,1.00
2018-06-15T16:54:09.868Z,1.00
2018-06-15T16:56:38.246Z,1.00
2018-06-15T16:59:06.744Z,1.00
2018-06-15T17:01:35.101Z,1.00
2018-06-15T17:04:03.440Z,1.00
2018-06-15T17:06:31.744Z,1.00
2018-06-15T17:09:00.077Z,1.00
2018-06-15T17:11:28.574Z,1.00
2018-06-15T17:13:57.007Z,1.00
2018-06-15T17:16:25.336Z,1.00
2018-06-15T17:18:53.870Z,1.00
2018-06-15T17:21:22.174Z,1.00
2018-06-15T17:23:50.734Z,1.00
2018-06-15T17:26:19.012Z,1.00
2018-06-15T17:28:47.491Z,1.00
2018-06-15T17:31:15.840Z,1.00
2018-06-15T17:33:44.129Z,1.00
2018-06-15T17:36:12.627Z,1.00
2018-06-15T17:38:41.218Z,1.00
2018-06-15T17:41:09.933Z,1.00
2018-06-15T17:43:38.681Z,1.00
2018-06-15T17:46:07.353Z,1.00
2018-06-15T17:48:36.169Z,1.00
2018-06-15T17:51:05.013Z,1.00
2018-06-15T17:53:33.730Z,1.00
2018-06-15T17:56:01.984Z,1.00
2018-06-15T17:58:30.698Z,1.00
2018-06-15T18:00:59.804Z,1.00
2018-06-15T18:03:28.676Z,1.00
2018-06-15T18:08:25.747Z,1.00
2018-06-15T18:10:54.773Z,1.00
2018-06-15T18:13:23.313Z,1.00
2018-06-15T18:15:52.122Z,1.00
2018-06-15T18:18:20.665Z,1.00
2018-06-15T18:20:49.289Z,1.00
2018-06-15T18:23:18.388Z,1.00
2018-06-15T18:25:47.205Z,1.00
2018-06-15T18:28:15.869Z,1.00
2018-06-15T18:30:44.611Z,1.00
2018-06-15T18:33:13.107Z,1.00
2018-06-15T18:35:41.600Z,1.00
2018-06-15T18:38:10.221Z,1.00
2018-06-15T18:40:39.018Z,1.00
2018-06-15T18:43:07.555Z,1.00
2018-06-15T18:45:36.032Z,1.00
2018-06-15T18:48:04.876Z,1.00
2018-06-15T18:50:33.511Z,1.00
2018-06-15T18:53:02.104Z,1.00
2018-06-15T18:55:30.463Z,1.00
2018-06-15T18:57:58.850Z,1.00
2018-06-15T19:00:27.325Z,1.00
2018-06-15T19:02:55.710Z,1.00
2018-06-15T19:05:24.183Z,1.00
2018-06-15T19:07:52.623Z,1.00
2018-06-15T19:10:21.214Z,1.00
2018-06-15T19:12:49.639Z,1.00
2018-06-15T19:15:18.224Z,1.00
2018-06-15T19:17:46.697Z,1.00
2018-06-15T19:20:15.129Z,1.00
2018-06-15T19:22:43.715Z,1.00
2018-06-15T19:25:12.285Z,1.00
2018-06-15T19:27:41.034Z,1.00
2018-06-15T19:30:09.741Z,1.00
2018-06-15T19:32:41.088Z,1.00
2018-06-15T19:35:09.903Z,1.00
2018-06-15T19:37:38.654Z,1.00
2018-06-15T19:40:07.242Z,1.00
2018-06-15T19:42:35.759Z,1.00
2018-06-15T19:45:05.176Z,1.00
2018-06-15T19:47:33.857Z,1.00
2018-06-15T19:50:02.810Z,1.00
2018-06-15T19:52:31.389Z,1.00
2018-06-15T19:55:00.242Z,1.00
2018-06-15T19:57:29.044Z,1.00
2018-06-15T20:00:03.159Z,1.00
2018-06-15T20:02:31.845Z,1.00
2018-06-15T20:05:00.409Z,1.00
2018-06-15T20:07:29.064Z,1.60
2018-06-15T20:09:57.402Z,2.50
2018-06-15T20:12:25.816Z,2.70
2018-06-15T20:14:54.547Z,3.20
2018-06-15T20:17:22.999Z,2.90
2018-06-15T20:19:51.497Z,3.70
2018-06-15T20:22:20.053Z,3.80
2018-06-15T20:24:48.723Z,5.00
2018-06-15T20:27:17.398Z,5.80
2018-06-15T20:29:45.911Z,6.40
2018-06-15T20:32:14.532Z,6.50
2018-06-15T20:34:43.075Z,7.60
2018-06-15T20:37:11.645Z,7.80
2018-06-15T20:39:40.106Z,8.60
2018-06-15T20:42:09.125Z,9.10
2018-06-15T20:44:40.169Z,9.40
2018-06-15T20:47:08.451Z,9.90
2018-06-15T20:49:36.823Z,10.20
2018-06-15T20:52:05.387Z,11.40
2018-06-15T20:54:33.950Z,11.90
2018-06-15T20:57:02.629Z,12.20
2018-06-15T20:59:31.253Z,12.60
2018-06-15T21:01:59.900Z,12.80
2018-06-15T21:04:28.638Z,13.10
2018-06-15T21:06:57.395Z,13.90
2018-06-15T21:09:25.857Z,14.40
2018-06-15T21:11:55.086Z,15.90
2018-06-15T21:14:23.644Z,16.30
2018-06-15T21:16:52.118Z,16.90
2018-06-15T21:19:20.503Z,17.90
2018-06-15T21:21:49.154Z,19.50
2018-06-15T21:24:18.030Z,20.90
2018-06-15T21:26:47.119Z,20.70
2018-06-15T21:29:16.290Z,22.20
2018-06-15T21:31:44.973Z,22.60
2018-06-15T21:34:13.667Z,23.30
2018-06-15T21:36:42.333Z,24.10
2018-06-15T21:39:11.048Z,24.90
2018-06-15T21:41:39.455Z,26.00
2018-06-15T21:44:08.324Z,26.10
2018-06-15T21:46:36.877Z,28.10
2018-06-15T21:49:05.351Z,30.70
2018-06-15T21:51:33.833Z,30.40
2018-06-15T21:54:02.473Z,31.10
2018-06-15T21:56:31.384Z,32.10
2018-06-15T21:59:00.654Z,33.00
2018-06-15T22:01:29.958Z,34.80
2018-06-15T22:03:59.150Z,35.60
2018-06-15T22:08:56.188Z,34.70
2018-06-15T22:11:25.029Z,35.50
2018-06-15T22:13:53.493Z,39.30
2018-06-15T22:16:21.967Z,41.80
2018-06-15T22:18:50.835Z,42.40
2018-06-15T22:21:19.441Z,45.10
2018-06-15T22:23:48.123Z,45.70
2018-06-15T22:26:17.555Z,49.90
2018-06-15T22:28:47.968Z,51.30
2018-06-15T22:31:16.940Z,55.70
2018-06-15T22:33:45.710Z,55.90
2018-06-15T22:36:14.841Z,55.90
2018-06-15T22:38:43.652Z,54.40
2018-06-15T22:41:12.386Z,48.70
2018-06-15T22:43:41.013Z,46.90
2018-06-15T22:48:38.053Z,49.00
2018-06-15T22:51:06.726Z,49.00
2018-06-15T22:53:35.127Z,49.40
2018-06-15T22:56:04.274Z,53.60
2018-06-15T22:58:32.954Z,53.10
2018-06-15T23:01:01.644Z,48.40
2018-06-15T23:03:30.360Z,48.10
2018-06-15T23:05:59.119Z,44.90
2018-06-15T23:08:27.454Z,42.20
2018-06-15T23:10:56.024Z,42.50
2018-06-15T23:13:24.835Z,46.50
2018-06-15T23:15:53.286Z,50.50
2018-06-15T23:18:22.072Z,48.50
2018-06-15T23:20:50.751Z,45.90
2018-06-15T23:23:19.073Z,46.10
2018-06-15T23:25:47.643Z,45.00
2018-06-15T23:30:44.392Z,48.40
2018-06-15T23:33:12.872Z,50.30
2018-06-15T23:35:41.447Z,53.40
2018-06-15T23:38:10.051Z,56.30
2018-06-15T23:40:38.442Z,56.60
2018-06-15T23:43:07.781Z,58.20
2018-06-15T23:45:36.378Z,58.80
2018-06-15T23:48:05.524Z,59.60
2018-06-15T23:50:33.862Z,57.10
2018-06-15T23:53:02.551Z,57.10
2018-06-15T23:55:31.407Z,63.30
2018-06-15T23:58:00.116Z,65.30
